Latest Weather Observations for Fort Denison

IDN60901

Issued at 5:21 am EDT Wednesday 13 November 2019 (issued every 10 minutes, with the page automatically refreshed every 10 minutes)

About weather observations | Map of Sydney area stations | Latest observations for Sydney area | Other Formats
Station Details ID: 066022 Name: FORT DENISON Lat: -33.86 Lon: 151.23 Height: 5.0 m
Data from the previous 72 hours. | See also: Recent months for locations in New South Wales
Date/Time
EDT
Temp
°C
App
Temp
°C
Dew
Point
°C
Rel
Hum
%
Delta-T
°C
Wind Press
QNH
hPa
Press
MSL
hPa
Rain since
9am
mm
Dir  Spd
km/h
Gust
km/h
Spd
kts
Gust
kts
13/05:00am - - - - - W 13 19 7 10 - - -
13/04:30am - - - - - SSW 11 17 6 9 - - -
13/04:00am - - - - - WSW 9 13 5 7 - - -
13/03:30am - - - - - SW 7 15 4 8 - - -
13/03:00am - - - - - S 9 15 5 8 - - -
13/02:30am - - - - - SSW 9 19 5 10 - - -
13/02:00am - - - - - SSW 13 20 7 11 - - -
13/01:30am - - - - - S 13 26 7 14 - - -
13/01:00am - - - - - S 17 32 9 17 - - -
13/12:30am - - - - - SSE 24 41 13 22 - - -
13/12:00am - - - - - SSE 26 43 14 23 - - -
 
Date/Time
EDT
Temp
°C
App
Temp
°C
Dew
Point
°C
Rel
Hum
%
Delta-T
°C
Wind Press
QNH
hPa
Press
MSL
hPa
Rain since
9am
mm
Dir  Spd
km/h
Gust
km/h
Spd
kts
Gust
kts
12/11:30pm - - - - - SSE 28 44 15 24 - - -
12/11:08pm - - - - - SSE 33 52 18 28 - - -
12/11:00pm - - - - - SSE 32 44 17 24 - - -
12/10:36pm - - - - - S 33 57 18 31 - - -
12/10:30pm - - - - - S 30 46 16 25 - - -
12/10:00pm - - - - - S 32 56 17 30 - - -
12/09:31pm - - - - - S 30 48 16 26 - - -
12/09:30pm - - - - - S 30 46 16 25 - - -
12/09:00pm - - - - - S 33 57 18 31 - - -
12/08:30pm - - - - - S 28 48 15 26 - - -
12/08:00pm - - - - - S 33 54 18 29 - - -
12/07:30pm - - - - - S 37 56 20 30 - - -
12/07:22pm - - - - - S 35 65 19 35 - - -
12/07:18pm - - - - - SW 28 65 15 35 - - -
12/07:00pm - - - - - W 28 44 15 24 - - -
12/06:41pm - - - - - WSW 32 50 17 27 - - -
12/06:30pm - - - - - W 32 46 17 25 - - -
12/06:27pm - - - - - W 28 46 15 25 - - -
12/06:00pm - - - - - NW 32 52 17 28 - - -
12/05:46pm - - - - - WNW 28 50 15 27 - - -
12/05:30pm - - - - - WNW 33 44 18 24 - - -
12/05:00pm - - - - - W 32 52 17 28 - - -
12/04:54pm - - - - - WNW 28 52 15 28 - - -
12/04:30pm - - - - - WNW 20 33 11 18 - - -
12/04:00pm - - - - - W 26 39 14 21 - - -
12/03:30pm - - - - - WNW 32 48 17 26 - - -
12/03:18pm - - - - - NW 28 56 15 30 - - -
12/03:00pm - - - - - WNW 26 41 14 22 - - -
12/02:30pm - - - - - WNW 28 54 15 29 - - -
12/02:04pm - - - - - W 30 48 16 26 - - -
12/02:00pm - - - - - W 26 44 14 24 - - -
12/01:43pm - - - - - WNW 28 44 15 24 - - -
12/01:32pm - - - - - W 37 59 20 32 - - -
12/01:30pm - - - - - WNW 35 59 19 32 - - -
12/01:28pm - - - - - WNW 33 50 18 27 - - -
12/01:00pm - - - - - WNW 22 32 12 17 - - -
12/12:30pm - - - - - WNW 28 44 15 24 - - -
12/12:00pm - - - - - NW 24 44 13 24 - - -
12/11:30am - - - - - WNW 22 37 12 20 - - -
12/11:00am - - - - - NW 26 46 14 25 - - -
12/10:57am - - - - - NW 24 46 13 25 - - -
12/10:30am - - - - - NW 19 30 10 16 - - -
12/10:00am - - - - - N 15 24 8 13 - - -
12/09:30am - - - - - N 20 28 11 15 - - -
12/09:00am - - - - - N 24 32 13 17 - - -
12/08:30am - - - - - NNW 24 32 13 17 - - -
12/08:00am - - - - - NNW 19 26 10 14 - - -
12/07:30am - - - - - W 7 9 4 5 - - -
12/07:00am - - - - - W 9 9 5 5 - - -
12/06:30am - - - - - W 7 9 4 5 - - -
12/06:00am - - - - - WNW 9 15 5 8 - - -
12/05:30am - - - - - ENE 2 6 1 3 - - -
12/05:00am - - - - - ESE 6 7 3 4 - - -
12/04:30am - - - - - NNE 4 7 2 4 - - -
12/04:00am - - - - - ESE 4 7 2 4 - - -
12/03:30am - - - - - CALM 0 2 0 1 - - -
12/03:00am - - - - - NE 2 4 1 2 - - -
12/02:30am - - - - - N 4 4 2 2 - - -
12/02:00am - - - - - ESE 2 4 1 2 - - -
12/01:30am - - - - - NNE 7 11 4 6 - - -
12/01:00am - - - - - NNE 2 4 1 2 - - -
12/12:30am - - - - - N 2 4 1 2 - - -
12/12:00am - - - - - ENE 2 2 1 1 - - -
 
Date/Time
EDT
Temp
°C
App
Temp
°C
Dew
Point
°C
Rel
Hum
%
Delta-T
°C
Wind Press
QNH
hPa
Press
MSL
hPa
Rain since
9am
mm
Dir  Spd
km/h
Gust
km/h
Spd
kts
Gust
kts
11/11:30pm - - - - - NE 4 6 2 3 - - -
11/11:00pm - - - - - NE 6 13 3 7 - - -
11/10:30pm - - - - - E 7 13 4 7 - - -
11/10:00pm - - - - - NE 6 15 3 8 - - -
11/09:30pm - - - - - NNE 20 32 11 17 - - -
11/09:00pm - - - - - NNE 32 43 17 23 - - -
11/08:30pm - - - - - NNE 33 46 18 25 - - -
11/08:00pm - - - - - NNE 33 46 18 25 - - -
11/07:31pm - - - - - NNE 37 56 20 30 - - -
11/07:30pm - - - - - NNE 39 56 21 30 - - -
11/07:00pm - - - - - NNE 32 44 17 24 - - -
11/06:30pm - - - - - NNE 32 50 17 27 - - -
11/06:00pm - - - - - NNE 32 50 17 27 - - -
11/05:52pm - - - - - NE 32 50 17 27 - - -
11/05:30pm - - - - - NE 35 48 19 26 - - -
11/05:08pm - - - - - NE 30 50 16 27 - - -
11/05:00pm - - - - - NNE 32 46 17 25 - - -
11/04:53pm - - - - - NE 28 46 15 25 - - -
11/04:30pm - - - - - NE 24 37 13 20 - - -
11/04:00pm - - - - - NE 24 35 13 19 - - -
11/03:30pm - - - - - NE 26 39 14 21 - - -
11/03:00pm - - - - - NE 28 43 15 23 - - -
11/02:30pm - - - - - NE 26 37 14 20 - - -
11/02:00pm - - - - - NE 24 35 13 19 - - -
11/01:30pm - - - - - ENE 28 33 15 18 - - -
11/01:00pm - - - - - ENE 20 28 11 15 - - -
11/12:30pm - - - - - ENE 20 26 11 14 - - -
11/12:00pm - - - - - ENE 19 24 10 13 - - -
11/11:30am - - - - - E 22 28 12 15 - - -
11/11:00am - - - - - ESE 9 24 5 13 - - -
11/10:30am - - - - - NW 6 9 3 5 - - -
11/10:00am - - - - - NW 11 19 6 10 - - -
11/09:30am - - - - - N 13 20 7 11 - - -
11/09:00am - - - - - NNW 20 30 11 16 - - -
11/08:30am - - - - - NNW 15 20 8 11 - - -
11/08:00am - - - - - NNW 11 15 6 8 - - -
11/07:30am - - - - - NNW 9 13 5 7 - - -
11/07:00am - - - - - NNW 11 13 6 7 - - -
11/06:30am - - - - - NNW 9 11 5 6 - - -
11/06:00am - - - - - NNW 7 11 4 6 - - -
11/05:30am - - - - - NNW 7 9 4 5 - - -
11/05:00am - - - - - NNW 7 11 4 6 - - -
11/04:30am - - - - - NNW 6 7 3 4 - - -
11/04:00am - - - - - NNW 7 9 4 5 - - -
11/03:30am - - - - - NNW 4 6 2 3 - - -
11/03:00am - - - - - NNW 6 7 3 4 - - -
11/02:30am - - - - - NW 4 4 2 2 - - -
11/02:00am - - - - - NNW 6 7 3 4 - - -
11/01:30am - - - - - WNW 6 7 3 4 - - -
11/01:00am - - - - - NNW 4 6 2 3 - - -
11/12:30am - - - - - NW 4 6 2 3 - - -
11/12:00am - - - - - CALM 0 2 0 1 - - -
 
Date/Time
EDT
Temp
°C
App
Temp
°C
Dew
Point
°C
Rel
Hum
%
Delta-T
°C
Wind Press
QNH
hPa
Press
MSL
hPa
Rain since
9am
mm
Dir  Spd
km/h
Gust
km/h
Spd
kts
Gust
kts
10/11:30pm - - - - - ESE 2 4 1 2 - - -
10/11:00pm - - - - - SSE 6 9 3 5 - - -
10/10:30pm - - - - - SSE 9 11 5 6 - - -
10/10:00pm - - - - - SSE 9 15 5 8 - - -
10/09:30pm - - - - - S 9 13 5 7 - - -
10/09:00pm - - - - - SE 15 20 8 11 - - -
10/08:30pm - - - - - SE 11 17 6 9 - - -
10/08:00pm - - - - - SE 13 22 7 12 - - -
10/07:30pm - - - - - SE 19 26 10 14 - - -
10/07:00pm - - - - - SSE 19 26 10 14 - - -
10/06:30pm - - - - - SE 20 35 11 19 - - -
10/06:00pm - - - - - SSE 24 37 13 20 - - -
10/05:30pm - - - - - ESE 24 32 13 17 - - -
10/05:00pm - - - - - ESE 22 30 12 16 - - -
10/04:30pm - - - - - ESE 20 28 11 15 - - -
10/04:00pm - - - - - ESE 20 28 11 15 - - -
10/03:30pm - - - - - ESE 20 24 11 13 - - -
10/03:00pm - - - - - E 20 26 11 14 - - -
10/02:30pm - - - - - ESE 22 28 12 15 - - -
10/02:00pm - - - - - ESE 20 26 11 14 - - -
10/01:30pm - - - - - ESE 24 32 13 17 - - -
10/01:00pm - - - - - ESE 24 35 13 19 - - -
10/12:30pm - - - - - ESE 13 28 7 15 - - -
10/12:00pm - - - - - W 7 19 4 10 - - -
10/11:30am - - - - - W 13 24 7 13 - - -
10/11:00am - - - - - W 15 24 8 13 - - -
10/10:30am - - - - - WSW 22 35 12 19 - - -
10/10:00am - - - - - WSW 24 33 13 18 - - -
10/09:30am - - - - - WSW 28 39 15 21 - - -
10/09:00am - - - - - WSW 26 39 14 21 - - -
10/08:30am - - - - - W 24 33 13 18 - - -
10/08:00am - - - - - W 32 43 17 23 - - -
10/07:30am - - - - - WSW 24 43 13 23 - - -
10/07:00am - - - - - W 20 24 11 13 - - -
10/06:30am - - - - - W 19 26 10 14 - - -
10/06:00am - - - - - W 17 24 9 13 - - -
10/05:30am - - - - - WNW 11 19 6 10 - - -

Latest Capital City Observations: Canberra | Sydney | Melbourne | Brisbane | Adelaide | Perth | Hobart | Darwin

Other formats

Comma delimited format used in spreadsheet applications
http://www.bom.gov.au/fwo/IDN60901/IDN60901.94769.axf

JavaScript Object Notation format (JSON) in row-major order
http://www.bom.gov.au/fwo/IDN60901/IDN60901.94769.json

Data quality

Most of these data are generated automatically and are frequently updated. Quality checks on data are not normally performed. It is possible for incorrect values to appear. Refer to information at About Latest Weather Observations and please check the disclaimer before using these data.